sensor_id;sensor_type;location;lat;lon;timestamp;pressure;altitude;pressure_sealevel;temperature;humidity
67740;BME280;54536;50.090;14.420;2022-12-13T00:01:11;99152.16;;;0.16;53.73
67740;BME280;54536;50.090;14.420;2022-12-13T00:03:38;99154.28;;;0.26;53.55
67740;BME280;54536;50.090;14.420;2022-12-13T00:06:09;99152.38;;;0.12;53.98
67740;BME280;54536;50.090;14.420;2022-12-13T00:08:36;99144.75;;;0.26;54.11
67740;BME280;54536;50.090;14.420;2022-12-13T00:11:13;99143.94;;;0.43;53.70
67740;BME280;54536;50.090;14.420;2022-12-13T00:13:41;99141.13;;;0.13;54.31
67740;BME280;54536;50.090;14.420;2022-12-13T00:16:17;99141.66;;;0.37;53.51
67740;BME280;54536;50.090;14.420;2022-12-13T00:18:50;99145.91;;;0.38;53.59
67740;BME280;54536;50.090;14.420;2022-12-13T00:21:19;99141.50;;;0.22;53.40
67740;BME280;54536;50.090;14.420;2022-12-13T00:23:51;99143.41;;;0.36;53.14
67740;BME280;54536;50.090;14.420;2022-12-13T00:26:21;99133.94;;;0.35;53.36
67740;BME280;54536;50.090;14.420;2022-12-13T00:28:47;99135.25;;;0.44;53.18
67740;BME280;54536;50.090;14.420;2022-12-13T00:31:17;99139.66;;;0.42;53.15
67740;BME280;54536;50.090;14.420;2022-12-13T00:33:44;99142.53;;;0.36;52.84
67740;BME280;54536;50.090;14.420;2022-12-13T00:36:10;99138.81;;;0.41;53.03
67740;BME280;54536;50.090;14.420;2022-12-13T00:38:43;99143.97;;;0.41;53.13
67740;BME280;54536;50.090;14.420;2022-12-13T00:41:11;99145.59;;;0.44;53.25
67740;BME280;54536;50.090;14.420;2022-12-13T00:43:38;99145.22;;;-0.01;53.59
67740;BME280;54536;50.090;14.420;2022-12-13T00:46:13;99145.47;;;0.12;53.85
67740;BME280;54536;50.090;14.420;2022-12-13T00:48:41;99143.94;;;0.43;53.60
67740;BME280;54536;50.090;14.420;2022-12-13T00:51:10;99148.06;;;0.45;53.63
67740;BME280;54536;50.090;14.420;2022-12-13T00:53:43;99147.19;;;0.46;53.90
67740;BME280;54536;50.090;14.420;2022-12-13T00:56:12;99148.88;;;0.13;53.81
67740;BME280;54536;50.090;14.420;2022-12-13T00:58:40;99141.88;;;0.32;54.06
67740;BME280;54536;50.090;14.420;2022-12-13T01:01:09;99143.00;;;0.44;54.09
67740;BME280;54536;50.090;14.420;2022-12-13T01:03:42;99144.50;;;0.48;53.89
67740;BME280;54536;50.090;14.420;2022-12-13T01:06:11;99143.06;;;0.42;54.09
67740;BME280;54536;50.090;14.420;2022-12-13T01:08:37;99142.16;;;0.26;54.51
67740;BME280;54536;50.090;14.420;2022-12-13T01:11:04;99142.91;;;0.45;53.52
67740;BME280;54536;50.090;14.420;2022-12-13T01:13:32;99138.69;;;0.27;53.60
67740;BME280;54536;50.090;14.420;2022-12-13T01:16:02;99137.03;;;-0.09;54.30
67740;BME280;54536;50.090;14.420;2022-12-13T01:18:28;99150.63;;;0.12;53.85
67740;BME280;54536;50.090;14.420;2022-12-13T01:23:26;99131.69;;;0.12;54.66
67740;BME280;54536;50.090;14.420;2022-12-13T01:25:53;99140.94;;;0.00;54.42
67740;BME280;54536;50.090;14.420;2022-12-13T01:28:20;99140.94;;;0.00;54.55
67740;BME280;54536;50.090;14.420;2022-12-13T01:31:02;99138.53;;;0.30;53.97
67740;BME280;54536;50.090;14.420;2022-12-13T01:33:31;99136.34;;;0.05;54.22
67740;BME280;54536;50.090;14.420;2022-12-13T01:36:04;99135.19;;;-0.07;55.34
67740;BME280;54536;50.090;14.420;2022-12-13T01:38:52;99137.25;;;0.21;54.15
67740;BME280;54536;50.090;14.420;2022-12-13T01:41:20;99129.94;;;0.12;54.87
67740;BME280;54536;50.090;14.420;2022-12-13T01:43:51;99130.34;;;0.05;54.00
67740;BME280;54536;50.090;14.420;2022-12-13T01:46:19;99127.75;;;-0.30;55.24
67740;BME280;54536;50.090;14.420;2022-12-13T01:51:36;99136.56;;;-0.34;55.56
67740;BME280;54536;50.090;14.420;2022-12-13T01:54:05;99137.97;;;-0.46;55.20
67740;BME280;54536;50.090;14.420;2022-12-13T01:56:40;99133.03;;;-0.51;55.99
67740;BME280;54536;50.090;14.420;2022-12-13T01:59:10;99132.47;;;-0.21;55.03
67740;BME280;54536;50.090;14.420;2022-12-13T02:01:38;99135.13;;;-0.05;54.90
67740;BME280;54536;50.090;14.420;2022-12-13T02:04:06;99132.69;;;-0.08;54.29
67740;BME280;54536;50.090;14.420;2022-12-13T02:06:43;99136.72;;;-0.20;54.22
67740;BME280;54536;50.090;14.420;2022-12-13T02:09:11;99132.97;;;-0.49;54.87
67740;BME280;54536;50.090;14.420;2022-12-13T02:11:41;99136.75;;;-0.56;54.79
67740;BME280;54536;50.090;14.420;2022-12-13T02:14:08;99136.53;;;-0.52;55.26
67740;BME280;54536;50.090;14.420;2022-12-13T02:17:35;99140.38;;;-0.60;54.78
67740;BME280;54536;50.090;14.420;2022-12-13T02:31:54;99139.63;;;-0.26;54.73
67740;BME280;54536;50.090;14.420;2022-12-13T02:34:08;99134.91;;;-0.18;54.29
67740;BME280;54536;50.090;14.420;2022-12-13T02:39:31;99142.34;;;-0.12;55.59
67740;BME280;54536;50.090;14.420;2022-12-13T02:42:31;99136.50;;;-0.33;55.51
67740;BME280;54536;50.090;14.420;2022-12-13T02:45:18;99136.44;;;-0.50;54.85
67740;BME280;54536;50.090;14.420;2022-12-13T02:47:55;99133.88;;;-0.50;55.05
67740;BME280;54536;50.090;14.420;2022-12-13T02:50:25;99131.84;;;-0.62;54.79
67740;BME280;54536;50.090;14.420;2022-12-13T02:52:54;99132.31;;;-0.35;54.77
67740;BME280;54536;50.090;14.420;2022-12-13T02:55:21;99131.56;;;-0.56;54.24
67740;BME280;54536;50.090;14.420;2022-12-13T02:57:47;99133.19;;;-0.54;55.77
67740;BME280;54536;50.090;14.420;2022-12-13T03:02:59;99123.09;;;-0.41;55.43
67740;BME280;54536;50.090;14.420;2022-12-13T03:06:02;99118.00;;;-0.79;54.88
67740;BME280;54536;50.090;14.420;2022-12-13T03:17:34;99120.16;;;-0.69;54.48
67740;BME280;54536;50.090;14.420;2022-12-13T03:20:03;99121.72;;;-1.03;55.33
67740;BME280;54536;50.090;14.420;2022-12-13T03:22:33;99115.00;;;-0.88;54.73
67740;BME280;54536;50.090;14.420;2022-12-13T03:25:00;99116.69;;;-0.68;55.67
67740;BME280;54536;50.090;14.420;2022-12-13T03:27:27;99118.09;;;-0.80;54.38
67740;BME280;54536;50.090;14.420;2022-12-13T03:29:54;99109.19;;;-1.11;55.16
67740;BME280;54536;50.090;14.420;2022-12-13T03:32:20;99112.69;;;-0.76;54.45
67740;BME280;54536;50.090;14.420;2022-12-13T03:34:46;99109.38;;;-0.78;56.15
67740;BME280;54536;50.090;14.420;2022-12-13T03:37:13;99108.75;;;-1.02;54.73
67740;BME280;54536;50.090;14.420;2022-12-13T03:39:40;99106.25;;;-0.84;54.81
67740;BME280;54536;50.090;14.420;2022-12-13T03:42:06;99101.09;;;-0.84;55.25
67740;BME280;54536;50.090;14.420;2022-12-13T03:44:32;99096.94;;;-0.88;56.40
67740;BME280;54536;50.090;14.420;2022-12-13T03:46:59;99090.66;;;-0.83;54.99
67740;BME280;54536;50.090;14.420;2022-12-13T03:49:25;99088.66;;;-0.95;55.56
67740;BME280;54536;50.090;14.420;2022-12-13T03:51:51;99098.84;;;-0.92;55.42
67740;BME280;54536;50.090;14.420;2022-12-13T03:54:18;99101.28;;;-0.89;54.45
67740;BME280;54536;50.090;14.420;2022-12-13T03:56:44;99097.75;;;-1.24;55.17
67740;BME280;54536;50.090;14.420;2022-12-13T03:59:17;99097.03;;;-1.09;54.15
67740;BME280;54536;50.090;14.420;2022-12-13T04:01:44;99091.41;;;-1.17;54.84
67740;BME280;54536;50.090;14.420;2022-12-13T04:04:10;99098.38;;;-1.00;54.57
67740;BME280;54536;50.090;14.420;2022-12-13T04:06:39;99100.91;;;-1.17;54.39
67740;BME280;54536;50.090;14.420;2022-12-13T04:09:05;99098.66;;;-1.06;54.90
67740;BME280;54536;50.090;14.420;2022-12-13T04:11:32;99102.50;;;-1.34;54.67
67740;BME280;54536;50.090;14.420;2022-12-13T04:14:22;99108.59;;;-1.55;54.90
67740;BME280;54536;50.090;14.420;2022-12-13T04:16:52;99101.50;;;-1.31;54.81
67740;BME280;54536;50.090;14.420;2022-12-13T04:19:18;99103.66;;;-1.41;55.33
67740;BME280;54536;50.090;14.420;2022-12-13T04:21:45;99100.91;;;-1.17;56.04
67740;BME280;54536;50.090;14.420;2022-12-13T04:24:11;99091.28;;;-1.72;54.81
67740;BME280;54536;50.090;14.420;2022-12-13T04:26:38;99092.69;;;-1.65;54.59
67740;BME280;54536;50.090;14.420;2022-12-13T04:29:04;99092.78;;;-1.67;54.73
67740;BME280;54536;50.090;14.420;2022-12-13T04:31:31;99090.41;;;-1.52;54.78
67740;BME280;54536;50.090;14.420;2022-12-13T04:33:58;99095.91;;;-1.60;54.78
67740;BME280;54536;50.090;14.420;2022-12-13T04:36:24;99089.03;;;-1.59;54.71
67740;BME280;54536;50.090;14.420;2022-12-13T04:38:56;99092.78;;;-1.87;54.63
67740;BME280;54536;50.090;14.420;2022-12-13T04:41:41;99090.03;;;-1.82;55.02
67740;BME280;54536;50.090;14.420;2022-12-13T04:44:09;99091.16;;;-1.69;55.43
67740;BME280;54536;50.090;14.420;2022-12-13T04:46:38;99088.28;;;-1.82;54.93
67740;BME280;54536;50.090;14.420;2022-12-13T04:49:04;99094.53;;;-1.88;54.62
67740;BME280;54536;50.090;14.420;2022-12-13T04:51:43;99088.06;;;-1.77;55.18
67740;BME280;54536;50.090;14.420;2022-12-13T04:54:15;99086.84;;;-1.69;55.10
67740;BME280;54536;50.090;14.420;2022-12-13T04:56:42;99083.00;;;-1.79;54.98
67740;BME280;54536;50.090;14.420;2022-12-13T04:59:08;99083.91;;;-1.80;54.70
67740;BME280;54536;50.090;14.420;2022-12-13T05:01:34;99083.09;;;-1.61;55.24
67740;BME280;54536;50.090;14.420;2022-12-13T05:04:02;99076.88;;;-1.76;53.91
67740;BME280;54536;50.090;14.420;2022-12-13T05:06:29;99082.22;;;-1.81;54.91
67740;BME280;54536;50.090;14.420;2022-12-13T05:08:55;99079.75;;;-1.63;54.76
67740;BME280;54536;50.090;14.420;2022-12-13T05:11:29;99080.59;;;-1.63;54.40
67740;BME280;54536;50.090;14.420;2022-12-13T05:14:03;99080.53;;;-1.82;55.27
67740;BME280;54536;50.090;14.420;2022-12-13T05:16:29;99080.94;;;-1.91;54.96
67740;BME280;54536;50.090;14.420;2022-12-13T05:19:01;99083.22;;;-1.65;54.49
67740;BME280;54536;50.090;14.420;2022-12-13T05:21:40;99082.16;;;-1.60;53.79
67740;BME280;54536;50.090;14.420;2022-12-13T05:24:06;99082.09;;;-1.78;54.70
67740;BME280;54536;50.090;14.420;2022-12-13T05:26:33;99079.28;;;-1.92;54.95
67740;BME280;54536;50.090;14.420;2022-12-13T05:29:05;99075.66;;;-1.88;54.71
67740;BME280;54536;50.090;14.420;2022-12-13T05:31:31;99073.78;;;-1.84;54.76
67740;BME280;54536;50.090;14.420;2022-12-13T05:33:57;99082.47;;;-1.67;54.87
67740;BME280;54536;50.090;14.420;2022-12-13T05:36:24;99084.84;;;-1.43;54.12
67740;BME280;54536;50.090;14.420;2022-12-13T05:38:52;99079.91;;;-1.87;54.26
67740;BME280;54536;50.090;14.420;2022-12-13T05:41:22;99080.47;;;-1.80;53.98
67740;BME280;54536;50.090;14.420;2022-12-13T05:43:51;99085.75;;;-1.83;54.44
67740;BME280;54536;50.090;14.420;2022-12-13T05:46:20;99086.41;;;-1.78;54.81
67740;BME280;54536;50.090;14.420;2022-12-13T05:48:46;99083.38;;;-1.88;54.61
67740;BME280;54536;50.090;14.420;2022-12-13T05:51:12;99088.22;;;-2.01;54.89
67740;BME280;54536;50.090;14.420;2022-12-13T05:53:40;99084.16;;;-2.06;55.05
67740;BME280;54536;50.090;14.420;2022-12-13T05:56:08;99086.41;;;-1.78;55.66
67740;BME280;54536;50.090;14.420;2022-12-13T05:58:38;99090.03;;;-1.82;54.04
67740;BME280;54536;50.090;14.420;2022-12-13T06:01:11;99086.94;;;-2.11;54.39
67740;BME280;54536;50.090;14.420;2022-12-13T06:03:38;99090.81;;;-2.01;54.76
67740;BME280;54536;50.090;14.420;2022-12-13T06:06:17;99087.72;;;-1.89;54.31
67740;BME280;54536;50.090;14.420;2022-12-13T06:08:43;99081.78;;;-2.31;55.22
67740;BME280;54536;50.090;14.420;2022-12-13T06:11:10;99085.69;;;-2.23;55.24
67740;BME280;54536;50.090;14.420;2022-12-13T06:13:36;99090.47;;;-1.93;55.34
67740;BME280;54536;50.090;14.420;2022-12-13T06:16:11;99088.22;;;-2.21;55.79
67740;BME280;54536;50.090;14.420;2022-12-13T06:18:38;99095.00;;;-1.98;55.62
67740;BME280;54536;50.090;14.420;2022-12-13T06:21:10;99087.59;;;-2.06;55.98
67740;BME280;54536;50.090;14.420;2022-12-13T06:23:36;99090.25;;;-1.68;55.45
67740;BME280;54536;50.090;14.420;2022-12-13T06:26:04;99094.34;;;-2.03;54.71
67740;BME280;54536;50.090;14.420;2022-12-13T06:28:31;99085.84;;;-1.85;54.67
67740;BME280;54536;50.090;14.420;2022-12-13T06:31:00;99085.19;;;-1.70;54.10
67740;BME280;54536;50.090;14.420;2022-12-13T06:33:26;99090.16;;;-1.46;54.37
67740;BME280;54536;50.090;14.420;2022-12-13T06:35:57;99089.09;;;-1.42;53.51
67740;BME280;54536;50.090;14.420;2022-12-13T06:38:24;99100.09;;;-1.57;53.70
67740;BME280;54536;50.090;14.420;2022-12-13T06:40:51;99093.91;;;-1.53;56.10
67740;BME280;54536;50.090;14.420;2022-12-13T06:43:18;99102.00;;;-1.42;57.04
67740;BME280;54536;50.090;14.420;2022-12-13T06:45:46;99093.78;;;-1.50;55.63
67740;BME280;54536;50.090;14.420;2022-12-13T06:48:12;99104.31;;;-1.75;53.82
67740;BME280;54536;50.090;14.420;2022-12-13T06:50:39;99108.19;;;-2.06;54.05
67740;BME280;54536;50.090;14.420;2022-12-13T06:53:05;99104.84;;;-1.88;54.83
67740;BME280;54536;50.090;14.420;2022-12-13T06:55:33;99106.59;;;-2.08;54.44
67740;BME280;54536;50.090;14.420;2022-12-13T06:58:00;99101.34;;;-2.07;55.94
67740;BME280;54536;50.090;14.420;2022-12-13T07:00:26;99110.56;;;-2.22;54.98
67740;BME280;54536;50.090;14.420;2022-12-13T07:02:53;99108.59;;;-2.15;54.47
67740;BME280;54536;50.090;14.420;2022-12-13T07:05:20;99110.72;;;-2.47;55.06
67740;BME280;54536;50.090;14.420;2022-12-13T07:07:47;99112.41;;;-2.46;55.64
67740;BME280;54536;50.090;14.420;2022-12-13T07:10:13;99113.69;;;-2.36;55.27
67740;BME280;54536;50.090;14.420;2022-12-13T07:12:39;99112.28;;;-2.43;55.04
67740;BME280;54536;50.090;14.420;2022-12-13T07:15:07;99116.16;;;-2.32;55.51
67740;BME280;54536;50.090;14.420;2022-12-13T07:17:34;99123.81;;;-2.31;55.37
67740;BME280;54536;50.090;14.420;2022-12-13T07:20:04;99128.34;;;-2.16;55.82
67740;BME280;54536;50.090;14.420;2022-12-13T07:22:32;99126.38;;;-2.09;55.06
67740;BME280;54536;50.090;14.420;2022-12-13T07:24:58;99130.47;;;-2.05;54.08
67740;BME280;54536;50.090;14.420;2022-12-13T07:27:24;99125.13;;;-2.00;54.48
67740;BME280;54536;50.090;14.420;2022-12-13T07:29:51;99125.44;;;-1.88;54.85
67740;BME280;54536;50.090;14.420;2022-12-13T07:32:17;99123.09;;;-2.13;54.40
67740;BME280;54536;50.090;14.420;2022-12-13T07:34:50;99120.22;;;-2.06;53.93
67740;BME280;54536;50.090;14.420;2022-12-13T07:37:16;99120.06;;;-2.44;54.46
67740;BME280;54536;50.090;14.420;2022-12-13T07:39:44;99113.69;;;-2.36;55.58
67740;BME280;54536;50.090;14.420;2022-12-13T07:42:10;99116.44;;;-2.18;55.26
67740;BME280;54536;50.090;14.420;2022-12-13T07:44:36;99112.91;;;-2.16;54.33
67740;BME280;54536;50.090;14.420;2022-12-13T07:47:09;99116.25;;;-2.36;54.29
67740;BME280;54536;50.090;14.420;2022-12-13T07:49:36;99126.59;;;-2.57;55.30
67740;BME280;54536;50.090;14.420;2022-12-13T07:52:03;99124.63;;;-2.51;55.02
67740;BME280;54536;50.090;14.420;2022-12-13T07:54:30;99127.94;;;-2.27;55.29
67740;BME280;54536;50.090;14.420;2022-12-13T07:56:56;99125.25;;;-2.46;55.44
67740;BME280;54536;50.090;14.420;2022-12-13T07:59:24;99131.06;;;-2.19;55.51
67740;BME280;54536;50.090;14.420;2022-12-13T08:01:50;99135.16;;;-2.35;55.33
67740;BME280;54536;50.090;14.420;2022-12-13T08:04:17;99134.34;;;-2.15;54.99
67740;BME280;54536;50.090;14.420;2022-12-13T08:06:49;99128.59;;;-2.22;54.55
67740;BME280;54536;50.090;14.420;2022-12-13T08:09:15;99130.53;;;-2.06;56.04
67740;BME280;54536;50.090;14.420;2022-12-13T08:11:41;99134.22;;;-2.12;54.76
67740;BME280;54536;50.090;14.420;2022-12-13T08:14:08;99130.81;;;-2.13;54.41
67740;BME280;54536;50.090;14.420;2022-12-13T08:16:35;99141.22;;;-1.95;54.89
67740;BME280;54536;50.090;14.420;2022-12-13T08:19:01;99137.41;;;-2.07;54.05
67740;BME280;54536;50.090;14.420;2022-12-13T08:21:27;99138.38;;;-2.09;53.78
67740;BME280;54536;50.090;14.420;2022-12-13T08:23:54;99145.53;;;-2.16;53.70
67740;BME280;54536;50.090;14.420;2022-12-13T08:26:26;99151.78;;;-2.01;53.52
67740;BME280;54536;50.090;14.420;2022-12-13T08:28:53;99146.75;;;-1.84;54.72
67740;BME280;54536;50.090;14.420;2022-12-13T08:31:19;99148.13;;;-1.75;53.74
67740;BME280;54536;50.090;14.420;2022-12-13T08:33:45;99155.84;;;-1.75;54.19
67740;BME280;54536;50.090;14.420;2022-12-13T08:36:15;99152.56;;;-1.58;53.80
67740;BME280;54536;50.090;14.420;2022-12-13T08:38:45;99154.81;;;-1.92;53.74
67740;BME280;54536;50.090;14.420;2022-12-13T08:41:12;99148.63;;;-1.67;55.91
67740;BME280;54536;50.090;14.420;2022-12-13T08:43:39;99146.31;;;-1.94;53.73
67740;BME280;54536;50.090;14.420;2022-12-13T08:46:11;99145.34;;;-1.71;53.41
67740;BME280;54536;50.090;14.420;2022-12-13T08:48:37;99153.91;;;-1.70;53.29
67740;BME280;54536;50.090;14.420;2022-12-13T08:51:09;99148.88;;;-1.53;53.79
67740;BME280;54536;50.090;14.420;2022-12-13T08:53:39;99154.47;;;-1.43;52.93
67740;BME280;54536;50.090;14.420;2022-12-13T08:56:09;99156.22;;;-1.44;53.02
67740;BME280;54536;50.090;14.420;2022-12-13T08:58:38;99157.41;;;-1.32;52.46
67740;BME280;54536;50.090;14.420;2022-12-13T09:01:08;99167.59;;;-1.29;53.38
67740;BME280;54536;50.090;14.420;2022-12-13T09:03:36;99159.94;;;-1.30;52.54
67740;BME280;54536;50.090;14.420;2022-12-13T09:06:11;99161.59;;;-1.29;52.56
67740;BME280;54536;50.090;14.420;2022-12-13T09:08:39;99162.59;;;-1.52;53.24
67740;BME280;54536;50.090;14.420;2022-12-13T09:11:08;99158.13;;;-1.09;54.36
67740;BME280;54536;50.090;14.420;2022-12-13T09:13:37;99156.66;;;-1.34;52.63
67740;BME280;54536;50.090;14.420;2022-12-13T09:16:11;99163.69;;;-1.19;52.12
67740;BME280;54536;50.090;14.420;2022-12-13T09:18:40;99164.94;;;-1.08;52.18
67740;BME280;54536;50.090;14.420;2022-12-13T09:21:12;99165.44;;;-1.19;52.32
67740;BME280;54536;50.090;14.420;2022-12-13T09:23:39;99162.47;;;-1.10;52.45
67740;BME280;54536;50.090;14.420;2022-12-13T09:26:13;99160.78;;;-1.11;52.61
67740;BME280;54536;50.090;14.420;2022-12-13T09:28:41;99166.56;;;-1.06;52.92
67740;BME280;54536;50.090;14.420;2022-12-13T09:31:11;99168.81;;;-1.17;53.06
67740;BME280;54536;50.090;14.420;2022-12-13T09:33:37;99167.47;;;-1.07;52.66
67740;BME280;54536;50.090;14.420;2022-12-13T09:36:05;99168.84;;;-1.19;52.38
67740;BME280;54536;50.090;14.420;2022-12-13T09:38:33;99163.66;;;-1.17;53.26
67740;BME280;54536;50.090;14.420;2022-12-13T09:41:27;99163.78;;;-0.82;53.79
67740;BME280;54536;50.090;14.420;2022-12-13T09:43:59;99169.22;;;-0.88;52.22
67740;BME280;54536;50.090;14.420;2022-12-13T09:46:34;99157.28;;;-0.72;53.10
67740;BME280;54536;50.090;14.420;2022-12-13T09:49:06;99155.00;;;-0.78;52.51
67740;BME280;54536;50.090;14.420;2022-12-13T09:51:36;99151.50;;;-0.77;52.84
67740;BME280;54536;50.090;14.420;2022-12-13T09:54:03;99148.34;;;-0.65;53.18
67740;BME280;54536;50.090;14.420;2022-12-13T09:56:29;99144.69;;;-0.78;52.71
67740;BME280;54536;50.090;14.420;2022-12-13T09:58:56;99140.88;;;-0.52;53.53
67740;BME280;54536;50.090;14.420;2022-12-13T10:01:22;99143.75;;;-0.41;52.99
67740;BME280;54536;50.090;14.420;2022-12-13T10:03:51;99144.75;;;-0.43;52.87
67740;BME280;54536;50.090;14.420;2022-12-13T10:06:22;99138.59;;;-0.41;52.84
67740;BME280;54536;50.090;14.420;2022-12-13T10:08:57;99136.84;;;-0.40;52.37
67740;BME280;54536;50.090;14.420;2022-12-13T10:11:26;99134.69;;;-0.50;52.38
67740;BME280;54536;50.090;14.420;2022-12-13T10:14:08;99129.88;;;-0.38;53.01
67740;BME280;54536;50.090;14.420;2022-12-13T10:16:46;99132.06;;;-0.48;52.62
67740;BME280;54536;50.090;14.420;2022-12-13T10:21:43;99131.44;;;-0.53;54.42
67740;BME280;54536;50.090;14.420;2022-12-13T10:24:17;99120.91;;;-0.49;53.12
67740;BME280;54536;50.090;14.420;2022-12-13T10:26:44;99125.69;;;-0.41;53.49
67740;BME280;54536;50.090;14.420;2022-12-13T10:29:11;99123.88;;;-0.39;52.82
67740;BME280;54536;50.090;14.420;2022-12-13T10:31:46;99114.22;;;-0.35;55.10
67740;BME280;54536;50.090;14.420;2022-12-13T10:36:47;99109.88;;;-0.52;54.67
67740;BME280;54536;50.090;14.420;2022-12-13T10:39:34;99112.47;;;-0.52;53.93
67740;BME280;54536;50.090;14.420;2022-12-13T10:42:03;99112.91;;;-0.61;54.13
67740;BME280;54536;50.090;14.420;2022-12-13T10:44:30;99114.44;;;-0.76;54.97
67740;BME280;54536;50.090;14.420;2022-12-13T10:47:03;99115.97;;;-0.72;54.93
67740;BME280;54536;50.090;14.420;2022-12-13T10:52:04;99113.34;;;-0.53;55.41
67740;BME280;54536;50.090;14.420;2022-12-13T10:54:35;99111.75;;;-0.56;56.05
67740;BME280;54536;50.090;14.420;2022-12-13T10:57:04;99122.03;;;-0.37;55.93
67740;BME280;54536;50.090;14.420;2022-12-13T11:01:57;99119.28;;;-0.87;56.05
67740;BME280;54536;50.090;14.420;2022-12-13T11:04:29;99114.78;;;-0.65;55.83
67740;BME280;54536;50.090;14.420;2022-12-13T11:06:59;99108.09;;;-0.33;56.49
67740;BME280;54536;50.090;14.420;2022-12-13T11:09:31;99106.38;;;-0.51;55.61
67740;BME280;54536;50.090;14.420;2022-12-13T11:12:03;99102.63;;;-0.63;55.97
67740;BME280;54536;50.090;14.420;2022-12-13T11:14:46;99103.25;;;-0.58;56.21
67740;BME280;54536;50.090;14.420;2022-12-13T11:17:18;99100.56;;;-0.74;56.34
67740;BME280;54536;50.090;14.420;2022-12-13T11:19:50;99086.69;;;-0.54;56.90
67740;BME280;54536;50.090;14.420;2022-12-13T11:22:27;99096.88;;;-0.33;55.93
67740;BME280;54536;50.090;14.420;2022-12-13T11:25:22;99087.25;;;-0.47;56.50
67740;BME280;54536;50.090;14.420;2022-12-13T11:30:52;99080.63;;;-0.53;56.63
67740;BME280;54536;50.090;14.420;2022-12-13T11:33:34;99083.53;;;-0.59;57.27
67740;BME280;54536;50.090;14.420;2022-12-13T11:41:51;99068.94;;;-0.42;56.45
67740;BME280;54536;50.090;14.420;2022-12-13T11:44:39;99066.81;;;-0.34;55.61
67740;BME280;54536;50.090;14.420;2022-12-13T11:47:18;99073.94;;;-0.39;56.43
67740;BME280;54536;50.090;14.420;2022-12-13T11:49:48;99077.81;;;-0.65;56.58
67740;BME280;54536;50.090;14.420;2022-12-13T11:52:26;99069.25;;;-0.49;57.21
67740;BME280;54536;50.090;14.420;2022-12-13T11:54:59;99070.53;;;-0.40;56.73
67740;BME280;54536;50.090;14.420;2022-12-13T11:57:38;99073.78;;;-0.36;57.30
67740;BME280;54536;50.090;14.420;2022-12-13T12:06:14;99081.00;;;0.09;57.33
67740;BME280;54536;50.090;14.420;2022-12-13T12:09:05;99080.00;;;0.12;55.30
67740;BME280;54536;50.090;14.420;2022-12-13T12:11:40;99075.28;;;0.03;55.71
67740;BME280;54536;50.090;14.420;2022-12-13T12:14:17;99075.75;;;-0.07;56.31
67740;BME280;54536;50.090;14.420;2022-12-13T12:16:52;99066.19;;;-0.05;55.82
67740;BME280;54536;50.090;14.420;2022-12-13T12:19:39;99070.16;;;-0.15;56.29
67740;BME280;54536;50.090;14.420;2022-12-13T12:33:43;99055.94;;;-0.41;56.61
67740;BME280;54536;50.090;14.420;2022-12-13T12:42:34;99048.97;;;-0.21;56.55
67740;BME280;54536;50.090;14.420;2022-12-13T12:47:51;99049.47;;;-0.15;56.25
67740;BME280;54536;50.090;14.420;2022-12-13T12:50:52;99045.31;;;-0.35;56.78
67740;BME280;54536;50.090;14.420;2022-12-13T12:57:00;99036.72;;;-0.18;56.87
67740;BME280;54536;50.090;14.420;2022-12-13T13:02:31;99036.94;;;-0.05;56.79
67740;BME280;54536;50.090;14.420;2022-12-13T13:05:24;99041.69;;;0.03;56.41
67740;BME280;54536;50.090;14.420;2022-12-13T13:10:50;99040.00;;;-0.32;56.98
67740;BME280;54536;50.090;14.420;2022-12-13T13:16:38;99042.88;;;-0.38;57.33
67740;BME280;54536;50.090;14.420;2022-12-13T13:19:38;99051.16;;;-0.31;57.20
67740;BME280;54536;50.090;14.420;2022-12-13T13:21:56;99045.59;;;-0.24;57.37
67740;BME280;54536;50.090;14.420;2022-12-13T13:29:33;99058.06;;;-0.14;56.76
67740;BME280;54536;50.090;14.420;2022-12-13T13:34:48;99060.16;;;0.12;56.30
67740;BME280;54536;50.090;14.420;2022-12-13T13:40:30;99055.25;;;-0.10;56.47
67740;BME280;54536;50.090;14.420;2022-12-13T13:45:57;99064.75;;;0.07;56.59
67740;BME280;54536;50.090;14.420;2022-12-13T13:52:01;99072.59;;;-0.12;56.55
67740;BME280;54536;50.090;14.420;2022-12-13T14:00:28;99079.88;;;-0.37;58.06
67740;BME280;54536;50.090;14.420;2022-12-13T14:03:41;99074.84;;;-0.40;57.84
67740;BME280;54536;50.090;14.420;2022-12-13T14:09:37;99082.16;;;-0.31;57.69
67740;BME280;54536;50.090;14.420;2022-12-13T14:23:46;99089.69;;;-0.09;57.07
67740;BME280;54536;50.090;14.420;2022-12-13T14:29:11;99078.75;;;0.19;56.39
67740;BME280;54536;50.090;14.420;2022-12-13T14:31:45;99088.91;;;-0.11;56.61
67740;BME280;54536;50.090;14.420;2022-12-13T14:34:23;99079.03;;;-0.03;57.05
67740;BME280;54536;50.090;14.420;2022-12-13T14:39:22;99079.72;;;-0.34;57.50
67740;BME280;54536;50.090;14.420;2022-12-13T14:41:53;99082.41;;;-0.36;58.00
67740;BME280;54536;50.090;14.420;2022-12-13T14:44:27;99078.13;;;-0.37;57.94
67740;BME280;54536;50.090;14.420;2022-12-13T14:47:01;99090.66;;;-0.47;57.90
67740;BME280;54536;50.090;14.420;2022-12-13T14:49:41;99088.91;;;-0.46;57.75
67740;BME280;54536;50.090;14.420;2022-12-13T14:52:17;99083.91;;;-0.32;58.01
67740;BME280;54536;50.090;14.420;2022-12-13T14:54:55;99079.50;;;-0.47;58.49
67740;BME280;54536;50.090;14.420;2022-12-13T14:57:24;99078.91;;;-0.35;57.83
67740;BME280;54536;50.090;14.420;2022-12-13T14:59:56;99077.97;;;-0.34;58.27
67740;BME280;54536;50.090;14.420;2022-12-13T15:02:30;99070.06;;;-0.31;58.03
67740;BME280;54536;50.090;14.420;2022-12-13T15:04:59;99070.53;;;-0.22;57.51
67740;BME280;54536;50.090;14.420;2022-12-13T15:07:41;99077.28;;;-0.20;57.93
67740;BME280;54536;50.090;14.420;2022-12-13T15:12:53;99076.91;;;-0.12;57.66
67740;BME280;54536;50.090;14.420;2022-12-13T15:15:30;99079.28;;;-0.25;58.05
67740;BME280;54536;50.090;14.420;2022-12-13T15:18:26;99079.03;;;-0.20;57.42
67740;BME280;54536;50.090;14.420;2022-12-13T15:20:55;99088.09;;;-0.12;59.11
67740;BME280;54536;50.090;14.420;2022-12-13T15:23:33;99086.44;;;-0.13;57.31
67740;BME280;54536;50.090;14.420;2022-12-13T15:26:06;99087.63;;;-0.20;58.15